Terminal Aerodrome Forecast
Issued by NWS

Home | Current Version | Previous Version | Text Only | Print | Product List | Glossary On
Versions: 1 2 3 4 5 6 7 8 9 10 11 12 13 14 15
000
FTUS46 KPQR 242334
TAFONP
TAF
KONP 242334Z 2500/2524 34011KT P6SM SKC
     FM250300 27005KT P6SM SKC
     FM251500 18005KT 5SM BR BKN003=

USA.gov is the U.S. government's official web portal to all federal, state and local government web resources and services.